sensor_id;sensor_type;location;lat;lon;timestamp;pressure;altitude;pressure_sealevel;temperature;humidity
72226;BME280;60130;52.250;5.048;2023-03-14T00:00:00;394.3;;;11.0;0.0
72226;BME280;60130;52.250;5.048;2023-03-14T00:05:00;394.3;;;11.0;0.0
72226;BME280;60130;52.250;5.048;2023-03-14T00:10:01;394.4;;;11.1;0.0
72226;BME280;60130;52.250;5.048;2023-03-14T00:15:00;394.4;;;11.1;0.0
72226;BME280;60130;52.250;5.048;2023-03-14T00:20:00;394.4;;;11.2;0.0
72226;BME280;60130;52.250;5.048;2023-03-14T00:25:00;394.4;;;11.2;0.0
72226;BME280;60130;52.250;5.048;2023-03-14T00:30:00;394.4;;;11.2;0.0
72226;BME280;60130;52.250;5.048;2023-03-14T00:35:00;394.4;;;11.2;0.0
72226;BME280;60130;52.250;5.048;2023-03-14T00:40:00;394.5;;;11.2;0.0
72226;BME280;60130;52.250;5.048;2023-03-14T00:45:00;394.4;;;11.2;0.0
72226;BME280;60130;52.250;5.048;2023-03-14T00:50:00;394.4;;;11.2;0.0
72226;BME280;60130;52.250;5.048;2023-03-14T00:55:00;394.4;;;11.1;0.0
72226;BME280;60130;52.250;5.048;2023-03-14T01:00:00;394.3;;;10.9;0.0
72226;BME280;60130;52.250;5.048;2023-03-14T01:05:00;394.1;;;10.7;0.0
72226;BME280;60130;52.250;5.048;2023-03-14T01:10:00;394.1;;;10.7;0.0
72226;BME280;60130;52.250;5.048;2023-03-14T01:15:00;394.1;;;10.6;0.0
72226;BME280;60130;52.250;5.048;2023-03-14T01:20:01;394.0;;;10.5;0.0
72226;BME280;60130;52.250;5.048;2023-03-14T01:25:00;unavailable;;;unavailable;unavailable
72226;BME280;60130;52.250;5.048;2023-03-14T01:30:00;393.6;;;9.9;0.0
72226;BME280;60130;52.250;5.048;2023-03-14T01:35:00;393.5;;;9.8;0.0
72226;BME280;60130;52.250;5.048;2023-03-14T01:40:00;393.6;;;9.9;0.0
72226;BME280;60130;52.250;5.048;2023-03-14T01:45:03;unavailable;;;unavailable;unavailable
72226;BME280;60130;52.250;5.048;2023-03-14T01:50:03;393.6;;;10.0;0.0
72226;BME280;60130;52.250;5.048;2023-03-14T01:55:03;393.7;;;10.1;0.0
72226;BME280;60130;52.250;5.048;2023-03-14T02:00:03;393.7;;;10.1;0.0
72226;BME280;60130;52.250;5.048;2023-03-14T02:05:00;393.7;;;10.1;0.0
72226;BME280;60130;52.250;5.048;2023-03-14T02:10:02;393.8;;;10.2;0.0
72226;BME280;60130;52.250;5.048;2023-03-14T02:15:00;393.8;;;10.2;0.0
72226;BME280;60130;52.250;5.048;2023-03-14T02:20:06;393.8;;;10.3;0.0
72226;BME280;60130;52.250;5.048;2023-03-14T02:25:05;393.8;;;10.2;0.0
72226;BME280;60130;52.250;5.048;2023-03-14T02:30:03;393.7;;;10.2;0.0
72226;BME280;60130;52.250;5.048;2023-03-14T02:35:04;393.7;;;10.1;0.0
72226;BME280;60130;52.250;5.048;2023-03-14T02:40:00;393.7;;;10.2;0.0
72226;BME280;60130;52.250;5.048;2023-03-14T02:50:05;393.8;;;10.2;0.0
72226;BME280;60130;52.250;5.048;2023-03-14T02:55:00;393.7;;;10.2;0.0
72226;BME280;60130;52.250;5.048;2023-03-14T03:00:00;393.7;;;10.2;0.0
72226;BME280;60130;52.250;5.048;2023-03-14T03:05:00;393.7;;;10.2;0.0
72226;BME280;60130;52.250;5.048;2023-03-14T03:10:00;unavailable;;;unavailable;unavailable
72226;BME280;60130;52.250;5.048;2023-03-14T03:15:00;393.6;;;9.9;0.0
72226;BME280;60130;52.250;5.048;2023-03-14T03:20:00;393.5;;;9.9;0.0
72226;BME280;60130;52.250;5.048;2023-03-14T03:25:00;393.5;;;9.8;0.0
72226;BME280;60130;52.250;5.048;2023-03-14T03:30:01;393.5;;;9.8;0.0
72226;BME280;60130;52.250;5.048;2023-03-14T03:35:01;393.5;;;9.8;0.0
72226;BME280;60130;52.250;5.048;2023-03-14T03:40:00;393.5;;;9.8;0.0
72226;BME280;60130;52.250;5.048;2023-03-14T03:45:02;393.5;;;9.9;0.0
72226;BME280;60130;52.250;5.048;2023-03-14T03:50:00;393.6;;;9.9;0.0
72226;BME280;60130;52.250;5.048;2023-03-14T03:55:00;393.6;;;10.0;0.0
72226;BME280;60130;52.250;5.048;2023-03-14T04:00:00;393.6;;;10.0;0.0
72226;BME280;60130;52.250;5.048;2023-03-14T04:05:00;393.7;;;10.1;0.0
72226;BME280;60130;52.250;5.048;2023-03-14T04:10:00;393.7;;;10.1;0.0
72226;BME280;60130;52.250;5.048;2023-03-14T04:15:00;393.7;;;10.1;0.0
72226;BME280;60130;52.250;5.048;2023-03-14T04:20:00;393.7;;;10.1;0.0
72226;BME280;60130;52.250;5.048;2023-03-14T04:25:00;393.7;;;10.2;0.0
72226;BME280;60130;52.250;5.048;2023-03-14T04:30:00;393.8;;;10.2;0.0
72226;BME280;60130;52.250;5.048;2023-03-14T04:35:00;393.8;;;10.2;0.0
72226;BME280;60130;52.250;5.048;2023-03-14T04:40:00;393.7;;;10.1;0.0
72226;BME280;60130;52.250;5.048;2023-03-14T04:45:01;393.6;;;10.0;0.0
72226;BME280;60130;52.250;5.048;2023-03-14T04:50:00;393.5;;;9.8;0.0
72226;BME280;60130;52.250;5.048;2023-03-14T04:55:00;393.4;;;9.6;0.0
72226;BME280;60130;52.250;5.048;2023-03-14T05:00:00;393.3;;;9.6;0.0
72226;BME280;60130;52.250;5.048;2023-03-14T05:05:00;393.3;;;9.6;0.0
72226;BME280;60130;52.250;5.048;2023-03-14T05:10:00;unavailable;;;unavailable;unavailable
72226;BME280;60130;52.250;5.048;2023-03-14T05:15:00;393.2;;;9.4;0.0
72226;BME280;60130;52.250;5.048;2023-03-14T05:20:00;393.2;;;9.4;0.0
72226;BME280;60130;52.250;5.048;2023-03-14T05:25:00;393.2;;;9.4;0.0
72226;BME280;60130;52.250;5.048;2023-03-14T05:30:00;393.2;;;9.4;0.0
72226;BME280;60130;52.250;5.048;2023-03-14T05:35:00;393.2;;;9.4;0.0
72226;BME280;60130;52.250;5.048;2023-03-14T05:40:00;393.2;;;9.4;0.0
72226;BME280;60130;52.250;5.048;2023-03-14T05:45:00;393.2;;;9.4;0.0
72226;BME280;60130;52.250;5.048;2023-03-14T05:50:00;393.2;;;9.4;0.0
72226;BME280;60130;52.250;5.048;2023-03-14T05:55:00;393.2;;;9.4;0.0
72226;BME280;60130;52.250;5.048;2023-03-14T06:00:00;393.2;;;9.3;0.0
72226;BME280;60130;52.250;5.048;2023-03-14T06:05:00;393.1;;;9.2;0.0
72226;BME280;60130;52.250;5.048;2023-03-14T06:10:00;393.0;;;9.1;0.0
72226;BME280;60130;52.250;5.048;2023-03-14T06:15:00;392.5;;;8.4;0.0
72226;BME280;60130;52.250;5.048;2023-03-14T06:20:00;392.5;;;8.4;0.0
72226;BME280;60130;52.250;5.048;2023-03-14T06:25:00;392.3;;;8.1;0.0
72226;BME280;60130;52.250;5.048;2023-03-14T06:30:00;392.3;;;8.1;0.0
72226;BME280;60130;52.250;5.048;2023-03-14T06:35:00;392.3;;;8.1;0.0
72226;BME280;60130;52.250;5.048;2023-03-14T06:40:00;392.3;;;8.1;0.0
72226;BME280;60130;52.250;5.048;2023-03-14T06:45:00;392.3;;;8.1;0.0
72226;BME280;60130;52.250;5.048;2023-03-14T06:50:00;392.3;;;8.1;0.0
72226;BME280;60130;52.250;5.048;2023-03-14T06:55:00;392.3;;;8.0;0.0
72226;BME280;60130;52.250;5.048;2023-03-14T07:00:00;392.2;;;8.0;0.0
72226;BME280;60130;52.250;5.048;2023-03-14T07:05:00;392.1;;;7.9;0.0
72226;BME280;60130;52.250;5.048;2023-03-14T07:10:00;392.1;;;7.8;0.0
72226;BME280;60130;52.250;5.048;2023-03-14T07:15:00;392.1;;;7.8;0.0
72226;BME280;60130;52.250;5.048;2023-03-14T07:20:00;392.1;;;7.8;0.0
72226;BME280;60130;52.250;5.048;2023-03-14T07:25:00;392.0;;;7.6;0.0
72226;BME280;60130;52.250;5.048;2023-03-14T07:30:00;391.9;;;7.5;0.0
72226;BME280;60130;52.250;5.048;2023-03-14T07:35:00;391.9;;;7.5;0.0
72226;BME280;60130;52.250;5.048;2023-03-14T07:40:00;391.9;;;7.5;0.0
72226;BME280;60130;52.250;5.048;2023-03-14T07:45:00;391.9;;;7.5;0.0
72226;BME280;60130;52.250;5.048;2023-03-14T07:50:00;391.2;;;6.4;0.0
72226;BME280;60130;52.250;5.048;2023-03-14T07:55:00;391.0;;;6.2;0.0
72226;BME280;60130;52.250;5.048;2023-03-14T08:00:00;391.1;;;6.3;0.0
72226;BME280;60130;52.250;5.048;2023-03-14T08:05:00;391.0;;;6.2;0.0
72226;BME280;60130;52.250;5.048;2023-03-14T08:10:00;391.0;;;6.2;0.0
72226;BME280;60130;52.250;5.048;2023-03-14T08:15:00;391.1;;;6.4;0.0
72226;BME280;60130;52.250;5.048;2023-03-14T08:20:00;391.1;;;6.3;0.0
72226;BME280;60130;52.250;5.048;2023-03-14T08:25:00;391.1;;;6.4;0.0
72226;BME280;60130;52.250;5.048;2023-03-14T08:30:00;391.3;;;6.6;0.0
72226;BME280;60130;52.250;5.048;2023-03-14T08:35:00;391.4;;;6.8;0.0
72226;BME280;60130;52.250;5.048;2023-03-14T08:40:01;391.5;;;7.0;0.0
72226;BME280;60130;52.250;5.048;2023-03-14T08:45:00;391.5;;;7.2;0.0
72226;BME280;60130;52.250;5.048;2023-03-14T08:50:00;391.6;;;7.0;0.0
72226;BME280;60130;52.250;5.048;2023-03-14T08:55:00;391.5;;;6.9;0.0
72226;BME280;60130;52.250;5.048;2023-03-14T09:00:00;391.4;;;6.8;0.0
72226;BME280;60130;52.250;5.048;2023-03-14T09:05:00;391.4;;;6.7;0.0
72226;BME280;60130;52.250;5.048;2023-03-14T09:10:00;391.4;;;6.8;0.0
72226;BME280;60130;52.250;5.048;2023-03-14T09:15:00;391.5;;;6.9;0.0
72226;BME280;60130;52.250;5.048;2023-03-14T09:20:00;391.6;;;7.0;0.0
72226;BME280;60130;52.250;5.048;2023-03-14T09:25:00;391.7;;;7.2;0.0
72226;BME280;60130;52.250;5.048;2023-03-14T09:30:00;391.8;;;7.3;0.0
72226;BME280;60130;52.250;5.048;2023-03-14T09:35:00;391.8;;;7.4;0.0
72226;BME280;60130;52.250;5.048;2023-03-14T09:40:00;391.7;;;7.3;0.0
72226;BME280;60130;52.250;5.048;2023-03-14T09:45:03;391.7;;;7.2;0.0
72226;BME280;60130;52.250;5.048;2023-03-14T09:50:00;391.5;;;7.0;0.0
72226;BME280;60130;52.250;5.048;2023-03-14T09:55:02;391.5;;;7.0;0.0
72226;BME280;60130;52.250;5.048;2023-03-14T10:00:03;391.6;;;7.1;0.0
72226;BME280;60130;52.250;5.048;2023-03-14T10:05:00;392.0;;;7.3;0.0
72226;BME280;60130;52.250;5.048;2023-03-14T10:10:00;392.1;;;7.8;0.0
72226;BME280;60130;52.250;5.048;2023-03-14T10:15:03;392.1;;;7.8;0.0
72226;BME280;60130;52.250;5.048;2023-03-14T10:20:00;392.1;;;7.8;0.0
72226;BME280;60130;52.250;5.048;2023-03-14T10:25:02;unavailable;;;unavailable;unavailable
72226;BME280;60130;52.250;5.048;2023-03-14T10:30:02;391.7;;;7.2;0.0
72226;BME280;60130;52.250;5.048;2023-03-14T10:35:06;391.2;;;6.5;0.0
72226;BME280;60130;52.250;5.048;2023-03-14T10:40:02;391.5;;;6.9;0.0
72226;BME280;60130;52.250;5.048;2023-03-14T10:45:03;391.7;;;7.2;0.0
72226;BME280;60130;52.250;5.048;2023-03-14T10:55:02;391.9;;;7.5;0.0
72226;BME280;60130;52.250;5.048;2023-03-14T11:00:00;392.3;;;8.1;0.0
72226;BME280;60130;52.250;5.048;2023-03-14T11:05:07;392.6;;;8.5;0.0
72226;BME280;60130;52.250;5.048;2023-03-14T11:10:03;392.6;;;8.6;0.0
72226;BME280;60130;52.250;5.048;2023-03-14T11:15:02;392.4;;;8.2;0.0
72226;BME280;60130;52.250;5.048;2023-03-14T11:20:15;392.5;;;8.3;0.0
72226;BME280;60130;52.250;5.048;2023-03-14T11:25:06;392.5;;;8.4;0.0
72226;BME280;60130;52.250;5.048;2023-03-14T11:30:05;392.5;;;8.4;0.0
72226;BME280;60130;52.250;5.048;2023-03-14T11:35:04;392.5;;;8.4;0.0
72226;BME280;60130;52.250;5.048;2023-03-14T11:40:05;unavailable;;;unavailable;unavailable
72226;BME280;60130;52.250;5.048;2023-03-14T11:45:00;392.8;;;8.8;0.0
72226;BME280;60130;52.250;5.048;2023-03-14T11:50:03;392.8;;;8.8;0.0
72226;BME280;60130;52.250;5.048;2023-03-14T11:55:05;392.7;;;8.7;0.0
72226;BME280;60130;52.250;5.048;2023-03-14T12:00:04;392.9;;;8.9;0.0
72226;BME280;60130;52.250;5.048;2023-03-14T12:05:20;392.7;;;8.7;0.0
72226;BME280;60130;52.250;5.048;2023-03-14T12:10:02;392.8;;;8.8;0.0
72226;BME280;60130;52.250;5.048;2023-03-14T12:15:01;393.1;;;9.2;0.0
72226;BME280;60130;52.250;5.048;2023-03-14T12:20:04;393.0;;;9.0;0.0
72226;BME280;60130;52.250;5.048;2023-03-14T12:25:13;392.7;;;8.6;0.0
72226;BME280;60130;52.250;5.048;2023-03-14T12:30:01;392.5;;;8.4;0.0
72226;BME280;60130;52.250;5.048;2023-03-14T12:35:07;392.5;;;8.3;0.0
72226;BME280;60130;52.250;5.048;2023-03-14T12:40:10;392.5;;;8.4;0.0
72226;BME280;60130;52.250;5.048;2023-03-14T12:45:14;392.7;;;8.7;0.0
72226;BME280;60130;52.250;5.048;2023-03-14T12:50:07;392.9;;;8.9;0.0
72226;BME280;60130;52.250;5.048;2023-03-14T12:55:04;392.9;;;9.0;0.0
72226;BME280;60130;52.250;5.048;2023-03-14T13:00:02;392.7;;;8.7;0.0
72226;BME280;60130;52.250;5.048;2023-03-14T13:05:04;392.4;;;8.2;0.0
72226;BME280;60130;52.250;5.048;2023-03-14T13:10:03;392.6;;;8.5;0.0
72226;BME280;60130;52.250;5.048;2023-03-14T13:15:01;392.6;;;8.6;0.0
72226;BME280;60130;52.250;5.048;2023-03-14T13:20:03;393.0;;;9.1;0.0
72226;BME280;60130;52.250;5.048;2023-03-14T13:25:01;393.2;;;9.3;0.0
72226;BME280;60130;52.250;5.048;2023-03-14T13:30:11;392.7;;;8.6;0.0
72226;BME280;60130;52.250;5.048;2023-03-14T13:35:00;392.8;;;8.9;0.0
72226;BME280;60130;52.250;5.048;2023-03-14T13:40:00;392.7;;;8.6;0.0
72226;BME280;60130;52.250;5.048;2023-03-14T13:45:00;392.9;;;8.9;0.0
72226;BME280;60130;52.250;5.048;2023-03-14T13:50:00;392.8;;;8.9;0.0
72226;BME280;60130;52.250;5.048;2023-03-14T13:55:01;392.7;;;8.7;0.0
72226;BME280;60130;52.250;5.048;2023-03-14T14:00:03;392.7;;;8.7;0.0
72226;BME280;60130;52.250;5.048;2023-03-14T14:05:01;unavailable;;;unavailable;unavailable
72226;BME280;60130;52.250;5.048;2023-03-14T14:10:00;392.5;;;8.3;0.0
72226;BME280;60130;52.250;5.048;2023-03-14T14:15:02;392.4;;;8.2;0.0
72226;BME280;60130;52.250;5.048;2023-03-14T14:20:02;392.5;;;8.3;0.0
72226;BME280;60130;52.250;5.048;2023-03-14T14:25:00;392.4;;;8.3;0.0
72226;BME280;60130;52.250;5.048;2023-03-14T14:30:03;392.2;;;8.0;0.0
72226;BME280;60130;52.250;5.048;2023-03-14T14:35:00;392.1;;;7.9;0.0
72226;BME280;60130;52.250;5.048;2023-03-14T14:40:07;392.0;;;7.7;0.0
72226;BME280;60130;52.250;5.048;2023-03-14T14:45:02;392.1;;;7.8;0.0
72226;BME280;60130;52.250;5.048;2023-03-14T14:50:03;392.1;;;7.8;0.0
72226;BME280;60130;52.250;5.048;2023-03-14T14:55:01;392.0;;;7.7;0.0
72226;BME280;60130;52.250;5.048;2023-03-14T15:00:02;392.2;;;7.9;0.0
72226;BME280;60130;52.250;5.048;2023-03-14T15:05:00;392.2;;;8.0;0.0
72226;BME280;60130;52.250;5.048;2023-03-14T15:10:00;392.2;;;7.9;0.0
72226;BME280;60130;52.250;5.048;2023-03-14T15:15:00;392.3;;;8.0;0.0
72226;BME280;60130;52.250;5.048;2023-03-14T15:20:00;392.6;;;8.5;0.0
72226;BME280;60130;52.250;5.048;2023-03-14T15:25:00;392.2;;;8.0;0.0
72226;BME280;60130;52.250;5.048;2023-03-14T15:30:00;392.0;;;7.7;0.0
72226;BME280;60130;52.250;5.048;2023-03-14T15:35:00;392.1;;;7.8;0.0
72226;BME280;60130;52.250;5.048;2023-03-14T15:40:00;392.2;;;7.9;0.0
72226;BME280;60130;52.250;5.048;2023-03-14T15:45:00;392.1;;;7.8;0.0
72226;BME280;60130;52.250;5.048;2023-03-14T15:50:00;391.9;;;7.5;0.0
72226;BME280;60130;52.250;5.048;2023-03-14T15:55:00;391.8;;;7.4;0.0
72226;BME280;60130;52.250;5.048;2023-03-14T16:00:00;391.8;;;7.3;0.0
72226;BME280;60130;52.250;5.048;2023-03-14T16:05:00;391.7;;;7.2;0.0
72226;BME280;60130;52.250;5.048;2023-03-14T16:10:00;391.7;;;7.2;0.0
72226;BME280;60130;52.250;5.048;2023-03-14T16:15:00;391.7;;;7.1;0.0
72226;BME280;60130;52.250;5.048;2023-03-14T16:20:00;391.6;;;7.0;0.0
72226;BME280;60130;52.250;5.048;2023-03-14T16:25:00;391.5;;;6.9;0.0
72226;BME280;60130;52.250;5.048;2023-03-14T16:30:00;391.5;;;6.9;0.0
72226;BME280;60130;52.250;5.048;2023-03-14T16:35:00;391.5;;;6.9;0.0
72226;BME280;60130;52.250;5.048;2023-03-14T16:40:00;391.5;;;7.0;0.0
72226;BME280;60130;52.250;5.048;2023-03-14T16:45:00;391.4;;;6.8;0.0
72226;BME280;60130;52.250;5.048;2023-03-14T16:50:00;391.4;;;6.8;0.0
72226;BME280;60130;52.250;5.048;2023-03-14T16:55:00;391.5;;;6.9;0.0
72226;BME280;60130;52.250;5.048;2023-03-14T17:00:00;391.4;;;6.8;0.0
72226;BME280;60130;52.250;5.048;2023-03-14T17:05:00;391.2;;;6.5;0.0
72226;BME280;60130;52.250;5.048;2023-03-14T17:10:00;391.1;;;6.3;0.0
72226;BME280;60130;52.250;5.048;2023-03-14T17:15:00;391.0;;;6.2;0.0
72226;BME280;60130;52.250;5.048;2023-03-14T17:20:00;391.0;;;6.2;0.0
72226;BME280;60130;52.250;5.048;2023-03-14T17:25:00;391.1;;;6.3;0.0
72226;BME280;60130;52.250;5.048;2023-03-14T17:30:00;391.0;;;6.2;0.0
72226;BME280;60130;52.250;5.048;2023-03-14T17:35:00;390.9;;;6.1;0.0
72226;BME280;60130;52.250;5.048;2023-03-14T17:40:00;390.7;;;5.8;0.0
72226;BME280;60130;52.250;5.048;2023-03-14T17:45:00;390.7;;;5.7;0.0
72226;BME280;60130;52.250;5.048;2023-03-14T17:50:00;390.6;;;5.6;0.0
72226;BME280;60130;52.250;5.048;2023-03-14T17:55:00;390.5;;;5.5;0.0
72226;BME280;60130;52.250;5.048;2023-03-14T18:00:00;390.4;;;5.2;0.0
72226;BME280;60130;52.250;5.048;2023-03-14T18:05:00;390.3;;;5.1;0.0
72226;BME280;60130;52.250;5.048;2023-03-14T18:10:00;390.2;;;5.0;0.0
72226;BME280;60130;52.250;5.048;2023-03-14T18:15:00;390.1;;;4.9;0.0
72226;BME280;60130;52.250;5.048;2023-03-14T18:20:00;390.0;;;4.7;0.0
72226;BME280;60130;52.250;5.048;2023-03-14T18:25:00;389.9;;;4.6;0.0
72226;BME280;60130;52.250;5.048;2023-03-14T18:30:00;389.8;;;4.4;0.0
72226;BME280;60130;52.250;5.048;2023-03-14T18:35:00;389.7;;;4.3;0.0
72226;BME280;60130;52.250;5.048;2023-03-14T18:40:00;389.7;;;4.3;0.0
72226;BME280;60130;52.250;5.048;2023-03-14T18:45:00;389.6;;;4.2;0.0
72226;BME280;60130;52.250;5.048;2023-03-14T18:50:00;389.7;;;4.3;0.0
72226;BME280;60130;52.250;5.048;2023-03-14T18:55:00;389.7;;;4.3;0.0
72226;BME280;60130;52.250;5.048;2023-03-14T19:00:00;389.7;;;4.3;0.0
72226;BME280;60130;52.250;5.048;2023-03-14T19:05:00;389.7;;;4.3;0.0
72226;BME280;60130;52.250;5.048;2023-03-14T19:10:00;389.7;;;4.3;0.0
72226;BME280;60130;52.250;5.048;2023-03-14T19:15:00;389.7;;;4.3;0.0
72226;BME280;60130;52.250;5.048;2023-03-14T19:20:00;389.7;;;4.3;0.0
72226;BME280;60130;52.250;5.048;2023-03-14T19:25:00;389.8;;;4.4;0.0
72226;BME280;60130;52.250;5.048;2023-03-14T19:30:00;389.9;;;4.6;0.0
72226;BME280;60130;52.250;5.048;2023-03-14T19:35:00;unavailable;;;unavailable;unavailable
72226;BME280;60130;52.250;5.048;2023-03-14T19:40:00;390.0;;;4.7;0.0
72226;BME280;60130;52.250;5.048;2023-03-14T19:45:00;389.8;;;4.4;0.0
72226;BME280;60130;52.250;5.048;2023-03-14T19:50:00;389.8;;;4.4;0.0
72226;BME280;60130;52.250;5.048;2023-03-14T19:55:00;389.6;;;4.2;0.0
72226;BME280;60130;52.250;5.048;2023-03-14T20:00:00;389.6;;;4.2;0.0
72226;BME280;60130;52.250;5.048;2023-03-14T20:05:00;389.7;;;4.3;0.0
72226;BME280;60130;52.250;5.048;2023-03-14T20:10:00;389.7;;;4.3;0.0
72226;BME280;60130;52.250;5.048;2023-03-14T20:15:00;389.7;;;4.3;0.0
72226;BME280;60130;52.250;5.048;2023-03-14T20:20:00;389.5;;;4.0;0.0
72226;BME280;60130;52.250;5.048;2023-03-14T20:25:00;389.5;;;3.9;0.0
72226;BME280;60130;52.250;5.048;2023-03-14T20:30:01;unavailable;;;unavailable;unavailable
72226;BME280;60130;52.250;5.048;2023-03-14T20:35:00;unavailable;;;unavailable;unavailable
72226;BME280;60130;52.250;5.048;2023-03-14T20:40:00;389.5;;;4.0;0.0
72226;BME280;60130;52.250;5.048;2023-03-14T20:45:00;389.4;;;3.9;0.0
72226;BME280;60130;52.250;5.048;2023-03-14T20:50:00;389.3;;;3.7;0.0
72226;BME280;60130;52.250;5.048;2023-03-14T20:55:00;389.3;;;3.7;0.0
72226;BME280;60130;52.250;5.048;2023-03-14T21:00:00;389.2;;;3.7;0.0
72226;BME280;60130;52.250;5.048;2023-03-14T21:05:00;389.3;;;3.7;0.0
72226;BME280;60130;52.250;5.048;2023-03-14T21:10:00;389.4;;;3.8;0.0
72226;BME280;60130;52.250;5.048;2023-03-14T21:15:00;389.4;;;3.8;0.0
72226;BME280;60130;52.250;5.048;2023-03-14T21:20:00;389.5;;;3.9;0.0
72226;BME280;60130;52.250;5.048;2023-03-14T21:25:00;389.6;;;4.1;0.0
72226;BME280;60130;52.250;5.048;2023-03-14T21:30:00;389.7;;;4.3;0.0
72226;BME280;60130;52.250;5.048;2023-03-14T21:35:00;389.8;;;4.4;0.0
72226;BME280;60130;52.250;5.048;2023-03-14T21:40:00;389.8;;;4.5;0.0
72226;BME280;60130;52.250;5.048;2023-03-14T21:45:00;389.9;;;4.6;0.0
72226;BME280;60130;52.250;5.048;2023-03-14T21:50:00;389.9;;;4.6;0.0
72226;BME280;60130;52.250;5.048;2023-03-14T21:55:00;unavailable;;;unavailable;unavailable
72226;BME280;60130;52.250;5.048;2023-03-14T22:00:00;389.6;;;4.2;0.0
72226;BME280;60130;52.250;5.048;2023-03-14T22:05:00;389.6;;;4.2;0.0
72226;BME280;60130;52.250;5.048;2023-03-14T22:10:00;389.5;;;4.1;0.0
72226;BME280;60130;52.250;5.048;2023-03-14T22:15:00;389.2;;;3.6;0.0
72226;BME280;60130;52.250;5.048;2023-03-14T22:20:01;389.3;;;3.7;0.0
72226;BME280;60130;52.250;5.048;2023-03-14T22:25:00;389.3;;;3.8;0.0
72226;BME280;60130;52.250;5.048;2023-03-14T22:30:00;389.4;;;3.9;0.0
72226;BME280;60130;52.250;5.048;2023-03-14T22:35:00;389.2;;;3.6;0.0
72226;BME280;60130;52.250;5.048;2023-03-14T22:40:00;389.1;;;3.5;0.0
72226;BME280;60130;52.250;5.048;2023-03-14T22:45:00;389.1;;;3.4;0.0
72226;BME280;60130;52.250;5.048;2023-03-14T22:50:00;389.1;;;3.4;0.0
72226;BME280;60130;52.250;5.048;2023-03-14T22:55:00;389.0;;;3.3;0.0
72226;BME280;60130;52.250;5.048;2023-03-14T23:00:00;389.0;;;3.3;0.0
72226;BME280;60130;52.250;5.048;2023-03-14T23:05:00;388.8;;;3.0;0.0
72226;BME280;60130;52.250;5.048;2023-03-14T23:10:00;388.5;;;3.0;0.0
72226;BME280;60130;52.250;5.048;2023-03-14T23:15:00;388.4;;;2.4;0.0
72226;BME280;60130;52.250;5.048;2023-03-14T23:20:00;388.5;;;2.5;0.0
72226;BME280;60130;52.250;5.048;2023-03-14T23:25:00;388.4;;;2.5;0.0
72226;BME280;60130;52.250;5.048;2023-03-14T23:30:00;388.5;;;2.5;0.0
72226;BME280;60130;52.250;5.048;2023-03-14T23:35:00;388.5;;;2.6;0.0
72226;BME280;60130;52.250;5.048;2023-03-14T23:40:00;388.5;;;2.6;0.0
72226;BME280;60130;52.250;5.048;2023-03-14T23:45:00;388.5;;;2.5;0.0
72226;BME280;60130;52.250;5.048;2023-03-14T23:50:00;388.6;;;2.7;0.0
72226;BME280;60130;52.250;5.048;2023-03-14T23:55:00;388.7;;;2.7;0.0
